createdAt,value
2022-11-09T00:00:55.522Z,16.95
2022-11-09T00:03:22.839Z,15.93
2022-11-09T00:05:57.593Z,14.75
2022-11-09T00:08:24.788Z,15.93
2022-11-09T00:10:51.979Z,14.02
2022-11-09T00:13:19.230Z,16.17
2022-11-09T00:15:46.441Z,16.63
2022-11-09T00:18:13.503Z,14.80
2022-11-09T00:20:46.894Z,14.65
2022-11-09T00:23:16.683Z,14.90
2022-11-09T00:25:44.453Z,15.02
2022-11-09T00:28:11.808Z,13.77
2022-11-09T00:30:38.818Z,14.73
2022-11-09T00:33:05.910Z,15.57
2022-11-09T00:35:33.411Z,15.43
2022-11-09T00:38:03.791Z,14.85
2022-11-09T00:40:32.197Z,14.35
2022-11-09T00:42:59.262Z,14.43
2022-11-09T00:45:26.318Z,14.05
2022-11-09T00:47:53.490Z,13.88
2022-11-09T00:50:20.556Z,14.25
2022-11-09T00:52:48.594Z,13.05
2022-11-09T00:55:15.952Z,14.60
2022-11-09T00:57:43.012Z,13.70
2022-11-09T01:00:11.414Z,14.52
2022-11-09T01:02:38.495Z,13.68
2022-11-09T01:05:05.968Z,15.95
2022-11-09T01:07:33.028Z,14.57
2022-11-09T01:10:00.263Z,14.30
2022-11-09T01:12:27.526Z,14.65
2022-11-09T01:14:54.673Z,13.68
2022-11-09T01:17:22.596Z,13.77
2022-11-09T01:19:49.796Z,13.27
2022-11-09T01:22:17.884Z,13.68
2022-11-09T01:24:45.584Z,13.75
2022-11-09T01:27:13.632Z,15.20
2022-11-09T01:29:40.746Z,15.30
2022-11-09T01:32:07.798Z,13.75
2022-11-09T01:34:34.879Z,14.90
2022-11-09T01:37:02.899Z,14.50
2022-11-09T01:39:30.814Z,14.20
2022-11-09T01:41:57.806Z,14.15
2022-11-09T01:44:28.178Z,14.90
2022-11-09T01:47:07.415Z,14.27
2022-11-09T01:49:49.826Z,14.65
2022-11-09T01:52:25.888Z,15.57
2022-11-09T01:54:58.924Z,14.70
2022-11-09T01:57:33.681Z,14.95
2022-11-09T02:00:07.694Z,13.27
2022-11-09T02:02:50.933Z,13.98
2022-11-09T02:05:24.177Z,14.95
2022-11-09T02:07:54.427Z,15.32
2022-11-09T02:10:29.304Z,15.35
2022-11-09T02:12:59.783Z,14.30
2022-11-09T02:15:28.725Z,14.55
2022-11-09T02:17:57.442Z,16.13
2022-11-09T02:20:25.530Z,16.80
2022-11-09T02:22:52.661Z,15.63
2022-11-09T02:25:21.407Z,16.00
2022-11-09T02:27:49.898Z,16.10
2022-11-09T02:30:20.126Z,16.42
2022-11-09T02:32:48.468Z,15.40
2022-11-09T02:35:15.443Z,17.08
2022-11-09T02:37:48.655Z,16.13
2022-11-09T02:40:33.027Z,16.17
2022-11-09T02:43:01.720Z,17.08
2022-11-09T02:45:28.954Z,16.25
2022-11-09T02:47:56.034Z,16.42
2022-11-09T02:50:23.380Z,15.70
2022-11-09T02:52:50.580Z,15.57
2022-11-09T02:55:18.497Z,16.65
2022-11-09T02:57:45.950Z,15.63
2022-11-09T03:00:15.623Z,14.07
2022-11-09T03:02:44.500Z,14.48
2022-11-09T03:05:12.658Z,14.43
2022-11-09T03:07:42.732Z,15.30
2022-11-09T03:10:09.985Z,14.90
2022-11-09T03:12:37.751Z,14.15
2022-11-09T03:15:11.594Z,13.57
2022-11-09T03:17:43.106Z,13.80
2022-11-09T03:20:11.054Z,13.98
2022-11-09T03:22:39.562Z,12.27
2022-11-09T03:25:07.327Z,13.52
2022-11-09T03:27:34.346Z,12.48
2022-11-09T03:30:01.660Z,12.82
2022-11-09T03:32:31.361Z,13.27
2022-11-09T03:34:58.823Z,12.52
2022-11-09T03:37:26.089Z,12.85
2022-11-09T03:39:53.257Z,11.65
2022-11-09T03:42:20.257Z,12.10
2022-11-09T03:44:47.437Z,12.25
2022-11-09T03:47:14.478Z,12.70
2022-11-09T03:49:41.479Z,12.35
2022-11-09T03:52:08.579Z,12.20
2022-11-09T03:54:35.569Z,11.98
2022-11-09T03:57:02.566Z,11.65
2022-11-09T03:59:29.719Z,11.38
2022-11-09T04:01:56.795Z,11.52
2022-11-09T04:04:23.971Z,11.90
2022-11-09T04:06:50.953Z,11.82
2022-11-09T04:09:17.953Z,12.45
2022-11-09T04:11:44.801Z,12.30
2022-11-09T04:14:11.885Z,12.13
2022-11-09T04:16:39.440Z,11.85
2022-11-09T04:19:06.398Z,12.32
2022-11-09T04:21:34.286Z,12.18
2022-11-09T04:24:01.326Z,12.57
2022-11-09T04:26:28.375Z,12.40
2022-11-09T04:28:55.427Z,12.57
2022-11-09T04:31:26.943Z,12.02
2022-11-09T04:33:55.727Z,11.88
2022-11-09T04:36:23.258Z,11.93
2022-11-09T04:38:50.314Z,13.00
2022-11-09T04:41:17.639Z,11.98
2022-11-09T04:43:44.757Z,12.52
2022-11-09T04:46:11.820Z,12.05
2022-11-09T04:48:39.135Z,11.43
2022-11-09T04:51:09.029Z,11.82
2022-11-09T04:53:37.380Z,11.02
2022-11-09T04:56:06.132Z,12.40
2022-11-09T04:58:33.706Z,11.60
2022-11-09T05:01:10.669Z,11.55
2022-11-09T05:03:38.187Z,12.05
2022-11-09T05:06:25.543Z,13.15
2022-11-09T05:08:53.999Z,12.50
2022-11-09T05:11:21.684Z,11.90
2022-11-09T05:13:51.727Z,12.45
2022-11-09T05:16:19.916Z,11.02
2022-11-09T05:18:47.521Z,13.00
2022-11-09T05:21:15.007Z,12.55
2022-11-09T05:24:00.385Z,12.70
2022-11-09T05:26:30.431Z,11.20
2022-11-09T05:28:59.282Z,12.73
2022-11-09T05:31:27.648Z,12.43
2022-11-09T05:33:55.454Z,12.50
2022-11-09T05:36:23.345Z,12.23
2022-11-09T05:38:50.493Z,12.57
2022-11-09T05:41:17.761Z,12.38
2022-11-09T05:43:45.969Z,13.55
2022-11-09T05:46:14.836Z,12.50
2022-11-09T05:48:42.543Z,12.93
2022-11-09T05:51:12.135Z,12.02
2022-11-09T05:53:43.659Z,12.57
2022-11-09T05:56:14.314Z,13.20
2022-11-09T05:58:42.193Z,13.68
2022-11-09T06:01:13.069Z,13.52
2022-11-09T06:03:42.221Z,12.63
2022-11-09T06:06:10.991Z,12.27
2022-11-09T06:08:38.311Z,12.63
2022-11-09T06:11:08.193Z,12.52
2022-11-09T06:13:35.287Z,12.23
2022-11-09T06:16:04.530Z,11.98
2022-11-09T06:18:32.954Z,14.18
2022-11-09T06:21:03.301Z,12.82
2022-11-09T06:23:31.073Z,13.50
2022-11-09T06:26:03.444Z,13.18
2022-11-09T06:28:30.491Z,13.57
2022-11-09T06:30:59.779Z,15.10
2022-11-09T06:33:27.268Z,14.13
2022-11-09T06:35:56.556Z,14.02
2022-11-09T06:38:24.291Z,13.55
2022-11-09T06:40:52.319Z,12.70
2022-11-09T06:43:19.860Z,12.70
2022-11-09T06:45:47.077Z,14.23
2022-11-09T06:48:14.309Z,12.20
2022-11-09T06:50:41.262Z,10.82
2022-11-09T06:53:11.688Z,11.48
2022-11-09T06:55:39.638Z,11.77
2022-11-09T06:58:12.071Z,11.15
2022-11-09T07:00:39.117Z,11.07
2022-11-09T07:03:06.540Z,11.07
2022-11-09T07:05:37.685Z,10.27
2022-11-09T07:08:04.872Z,10.13
2022-11-09T07:10:32.001Z,10.70
2022-11-09T07:12:59.286Z,11.18
2022-11-09T07:15:27.415Z,10.68
2022-11-09T07:17:57.777Z,10.70
2022-11-09T07:20:25.123Z,11.50
2022-11-09T07:22:52.415Z,11.25
2022-11-09T07:25:19.984Z,10.23
2022-11-09T07:27:47.279Z,10.88
2022-11-09T07:30:14.490Z,10.88
2022-11-09T07:35:29.851Z,11.02
2022-11-09T07:38:01.737Z,11.15
2022-11-09T07:40:29.334Z,10.68
2022-11-09T07:43:01.080Z,10.10
2022-11-09T07:45:29.387Z,12.07
2022-11-09T07:48:10.422Z,10.63
2022-11-09T07:50:38.996Z,11.10
2022-11-09T07:53:09.809Z,10.63
2022-11-09T07:55:37.003Z,11.25
2022-11-09T07:58:07.288Z,10.20
2022-11-09T08:00:36.528Z,10.52
2022-11-09T08:03:04.569Z,11.88
2022-11-09T08:05:31.625Z,10.65
2022-11-09T08:08:01.462Z,10.15
2022-11-09T08:10:30.357Z,9.85
2022-11-09T08:13:03.387Z,10.07
2022-11-09T08:15:31.159Z,9.80
2022-11-09T08:18:03.104Z,10.52
2022-11-09T08:20:30.739Z,10.32
2022-11-09T08:23:03.348Z,10.20
2022-11-09T08:25:35.080Z,10.18
2022-11-09T08:28:03.622Z,10.68
2022-11-09T08:30:31.418Z,10.57
2022-11-09T08:33:03.559Z,10.18
2022-11-09T08:35:31.306Z,10.20
2022-11-09T08:38:05.086Z,10.23
2022-11-09T08:40:33.540Z,10.65
2022-11-09T08:43:06.880Z,10.07
2022-11-09T08:45:35.852Z,10.65
2022-11-09T08:48:04.159Z,10.43
2022-11-09T08:50:32.962Z,10.18
2022-11-09T08:53:01.730Z,10.18
2022-11-09T08:55:29.132Z,11.55
2022-11-09T08:57:58.219Z,10.52
2022-11-09T09:00:26.070Z,16.90
2022-11-09T09:02:53.457Z,11.88
2022-11-09T09:05:20.981Z,11.73
2022-11-09T09:07:47.933Z,11.48
2022-11-09T09:10:14.935Z,10.90
2022-11-09T09:12:42.579Z,9.65
2022-11-09T09:15:09.777Z,10.05
2022-11-09T09:17:37.025Z,10.25
2022-11-09T09:20:04.411Z,9.95
2022-11-09T09:22:33.451Z,10.18
2022-11-09T09:25:00.684Z,9.35
2022-11-09T09:27:29.452Z,9.18
2022-11-09T09:29:56.957Z,9.70
2022-11-09T09:32:24.117Z,9.27
2022-11-09T09:34:51.201Z,9.50
2022-11-09T09:37:18.136Z,8.95
2022-11-09T09:39:45.231Z,9.18
2022-11-09T09:42:31.610Z,10.25
2022-11-09T09:45:04.241Z,9.38
2022-11-09T09:47:53.478Z,8.77
2022-11-09T09:50:32.282Z,9.35
2022-11-09T09:53:24.332Z,8.73
2022-11-09T09:56:21.967Z,9.02
2022-11-09T09:58:59.007Z,9.25
2022-11-09T10:03:56.935Z,8.43
2022-11-09T10:06:29.777Z,9.27
2022-11-09T10:09:32.372Z,9.25
2022-11-09T10:12:29.739Z,9.32
2022-11-09T10:15:15.565Z,9.23
2022-11-09T10:18:30.668Z,9.45
2022-11-09T10:21:09.373Z,9.30
2022-11-09T10:23:36.793Z,9.65
2022-11-09T10:26:34.473Z,9.73
2022-11-09T10:29:17.084Z,9.18
2022-11-09T10:31:47.151Z,10.02
2022-11-09T10:34:21.145Z,10.25
2022-11-09T10:37:04.628Z,10.60
2022-11-09T10:39:43.219Z,8.88
2022-11-09T10:42:29.368Z,9.15
2022-11-09T10:45:22.284Z,10.50
2022-11-09T10:48:11.286Z,9.63
2022-11-09T10:50:57.028Z,9.27
2022-11-09T10:53:42.557Z,9.00
2022-11-09T10:56:33.017Z,9.02
2022-11-09T10:59:56.897Z,8.82
2022-11-09T11:02:45.260Z,8.50
2022-11-09T11:05:31.588Z,9.73
2022-11-09T11:08:23.661Z,7.82
2022-11-09T11:11:32.881Z,8.13
2022-11-09T11:14:34.990Z,8.85
2022-11-09T11:17:26.349Z,8.32
2022-11-09T11:20:33.198Z,8.38
2022-11-09T11:23:25.379Z,8.05
2022-11-09T11:26:23.391Z,8.55
2022-11-09T11:29:41.449Z,8.25
2022-11-09T11:32:27.050Z,7.88
2022-11-09T11:35:14.534Z,8.88
2022-11-09T11:38:37.195Z,8.43
2022-11-09T11:41:44.519Z,8.27
2022-11-09T11:45:02.924Z,8.70
2022-11-09T11:48:11.384Z,9.20
2022-11-09T11:51:03.959Z,9.13
2022-11-09T11:53:55.472Z,8.63
2022-11-09T11:56:56.171Z,8.10
2022-11-09T11:59:41.724Z,8.50
2022-11-09T12:02:45.756Z,9.48
2022-11-09T12:05:46.474Z,9.07
2022-11-09T12:08:51.625Z,8.90
2022-11-09T12:12:02.151Z,8.45
2022-11-09T12:15:23.905Z,8.68
2022-11-09T12:18:27.201Z,8.52
2022-11-09T12:21:24.661Z,8.40
2022-11-09T12:24:10.559Z,8.25
2022-11-09T12:27:32.496Z,7.80
2022-11-09T12:30:21.551Z,7.13
2022-11-09T12:33:14.457Z,7.82
2022-11-09T12:36:08.503Z,8.07
2022-11-09T12:39:11.807Z,7.22
2022-11-09T12:42:03.887Z,6.80
2022-11-09T12:45:04.400Z,7.53
2022-11-09T12:47:53.179Z,7.55
2022-11-09T12:50:39.147Z,7.40
2022-11-09T12:53:38.075Z,7.00
2022-11-09T12:56:35.471Z,7.22
2022-11-09T12:59:26.966Z,7.15
2022-11-09T13:02:25.097Z,6.78
2022-11-09T13:05:47.774Z,7.00
2022-11-09T13:08:33.280Z,6.63
2022-11-09T13:11:19.019Z,6.82
2022-11-09T13:14:22.594Z,7.25
2022-11-09T13:17:26.682Z,7.05
2022-11-09T13:26:49.308Z,6.30
2022-11-09T13:29:40.996Z,7.15
2022-11-09T13:32:28.878Z,6.88
2022-11-09T13:38:23.203Z,6.60
2022-11-09T13:41:30.901Z,6.93
2022-11-09T13:44:16.659Z,7.20
2022-11-09T13:47:02.622Z,6.78
2022-11-09T13:49:50.726Z,6.95
2022-11-09T13:52:59.220Z,7.72
2022-11-09T13:55:44.492Z,7.40
2022-11-09T13:58:37.389Z,8.13
2022-11-09T14:01:45.741Z,7.45
2022-11-09T14:04:39.088Z,7.95
2022-11-09T14:07:33.067Z,7.75
2022-11-09T14:10:24.370Z,8.70
2022-11-09T14:13:28.238Z,8.85
2022-11-09T14:16:27.604Z,8.55
2022-11-09T14:19:31.863Z,7.68
2022-11-09T14:22:19.956Z,8.10
2022-11-09T14:25:16.537Z,8.80
2022-11-09T14:28:02.336Z,8.45
2022-11-09T14:30:48.942Z,8.73
2022-11-09T14:33:37.438Z,9.07
2022-11-09T14:36:23.212Z,8.80
2022-11-09T14:39:25.770Z,8.35
2022-11-09T14:42:19.039Z,8.10
2022-11-09T14:45:06.952Z,8.23
2022-11-09T14:47:56.944Z,9.85
2022-11-09T14:50:42.844Z,9.90
2022-11-09T14:53:38.443Z,9.25
2022-11-09T14:56:24.727Z,9.50
2022-11-09T14:59:15.911Z,9.40
2022-11-09T15:02:06.398Z,9.05
2022-11-09T15:04:54.983Z,9.50
2022-11-09T15:07:40.804Z,9.90
2022-11-09T15:10:29.732Z,9.50
2022-11-09T15:13:15.713Z,9.20
2022-11-09T15:16:02.674Z,9.13
2022-11-09T15:18:49.869Z,9.00
2022-11-09T15:21:40.456Z,10.30
2022-11-09T15:24:29.025Z,10.10
2022-11-09T15:27:37.707Z,9.77
2022-11-09T15:30:41.954Z,9.80
2022-11-09T15:33:34.112Z,10.00
2022-11-09T15:36:25.792Z,10.40
2022-11-09T15:39:20.642Z,10.77
2022-11-09T15:42:06.646Z,11.20
2022-11-09T15:44:57.759Z,10.88
2022-11-09T15:47:54.464Z,11.73
2022-11-09T15:50:40.949Z,10.70
2022-11-09T15:53:27.641Z,11.38
2022-11-09T15:56:21.946Z,11.07
2022-11-09T15:59:15.400Z,10.80
2022-11-09T16:02:01.158Z,10.68
2022-11-09T16:04:47.163Z,11.82
2022-11-09T16:07:32.787Z,11.30
2022-11-09T16:10:23.537Z,11.82
2022-11-09T16:13:10.652Z,12.48
2022-11-09T16:16:06.324Z,11.93
2022-11-09T16:18:51.958Z,12.73
2022-11-09T16:21:37.787Z,12.85
2022-11-09T16:24:23.368Z,12.15
2022-11-09T16:27:22.251Z,12.60
2022-11-09T16:30:15.620Z,12.98
2022-11-09T16:33:00.840Z,12.30
2022-11-09T16:35:46.594Z,12.60
2022-11-09T16:38:37.481Z,12.70
2022-11-09T16:41:25.434Z,13.20
2022-11-09T16:46:57.481Z,12.13
2022-11-09T16:49:43.837Z,12.65
2022-11-09T16:55:15.996Z,13.00
2022-11-09T16:58:01.684Z,13.48
2022-11-09T17:06:42.553Z,14.30
2022-11-09T17:09:28.060Z,13.32
2022-11-09T17:12:14.520Z,13.88
2022-11-09T17:15:00.915Z,14.82
2022-11-09T17:17:46.996Z,14.15
2022-11-09T17:20:32.444Z,14.15
2022-11-09T17:23:19.443Z,15.85
2022-11-09T17:26:07.036Z,15.40
2022-11-09T17:28:53.363Z,15.40
2022-11-09T17:31:39.044Z,14.93
2022-11-09T17:34:24.646Z,15.07
2022-11-09T17:37:10.127Z,15.30
2022-11-09T17:39:55.785Z,13.80
2022-11-09T17:42:41.379Z,14.77
2022-11-09T17:45:27.053Z,15.02
2022-11-09T17:48:12.896Z,14.18
2022-11-09T17:50:59.390Z,14.50
2022-11-09T17:53:46.063Z,14.27
2022-11-09T17:56:33.467Z,14.27
2022-11-09T17:59:18.903Z,14.13
2022-11-09T18:02:04.834Z,13.05
2022-11-09T18:04:53.689Z,15.25
2022-11-09T18:07:39.931Z,12.93
2022-11-09T18:10:25.885Z,13.60
2022-11-09T18:13:12.088Z,13.00
2022-11-09T18:15:58.123Z,13.15
2022-11-09T18:18:44.835Z,13.40
2022-11-09T18:21:31.893Z,10.83
2022-11-09T18:24:17.539Z,11.67
2022-11-09T18:27:03.584Z,12.05
2022-11-09T18:29:49.470Z,11.77
2022-11-09T18:32:35.063Z,10.48
2022-11-09T18:35:20.690Z,11.85
2022-11-09T18:38:10.047Z,11.27
2022-11-09T18:41:08.221Z,10.25
2022-11-09T18:43:54.999Z,11.55
2022-11-09T18:46:40.781Z,11.13
2022-11-09T18:49:26.352Z,11.25
2022-11-09T18:52:12.651Z,10.65
2022-11-09T18:54:58.301Z,10.75
2022-11-09T18:57:43.918Z,10.55
2022-11-09T19:00:29.642Z,9.93
2022-11-09T19:03:16.166Z,10.38
2022-11-09T19:06:11.748Z,9.35
2022-11-09T19:09:15.938Z,9.95
2022-11-09T19:12:06.746Z,9.55
2022-11-09T19:14:52.079Z,10.13
2022-11-09T19:17:37.638Z,10.55
2022-11-09T19:20:23.252Z,9.93
2022-11-09T19:23:09.021Z,9.38
2022-11-09T19:25:54.743Z,9.95
2022-11-09T19:28:42.972Z,9.82
2022-11-09T19:31:29.180Z,9.73
2022-11-09T19:34:20.098Z,10.38
2022-11-09T19:37:05.998Z,9.45
2022-11-09T19:39:51.510Z,9.00
2022-11-09T19:42:37.269Z,9.55
2022-11-09T19:45:22.770Z,9.25
2022-11-09T19:48:08.613Z,8.75
2022-11-09T19:50:55.813Z,9.75
2022-11-09T19:53:42.903Z,8.75
2022-11-09T19:56:31.021Z,9.27
2022-11-09T20:02:02.954Z,8.82
2022-11-09T20:04:50.871Z,9.43
2022-11-09T20:10:21.860Z,8.60
2022-11-09T20:13:07.590Z,8.85
2022-11-09T20:15:53.006Z,9.07
2022-11-09T20:18:39.254Z,8.50
2022-11-09T20:21:25.427Z,9.65
2022-11-09T20:24:12.583Z,8.15
2022-11-09T20:26:58.317Z,9.57
2022-11-09T20:29:44.153Z,8.38
2022-11-09T20:32:31.334Z,9.15
2022-11-09T20:35:16.995Z,9.13
2022-11-09T20:38:02.930Z,9.65
2022-11-09T20:40:56.180Z,8.50
2022-11-09T20:43:42.208Z,8.93
2022-11-09T20:46:32.847Z,9.10
2022-11-09T20:49:21.134Z,8.75
2022-11-09T20:52:06.520Z,8.50
2022-11-09T20:54:52.455Z,8.35
2022-11-09T20:57:38.534Z,7.45
2022-11-09T21:00:24.781Z,8.10
2022-11-09T21:03:10.835Z,8.07
2022-11-09T21:06:01.295Z,8.77
2022-11-09T21:08:51.575Z,8.73
2022-11-09T21:11:57.178Z,8.57
2022-11-09T21:14:42.923Z,8.60
2022-11-09T21:17:31.410Z,8.95
2022-11-09T21:20:17.682Z,9.07
2022-11-09T21:23:12.377Z,9.13
2022-11-09T21:26:19.055Z,8.88
2022-11-09T21:29:24.731Z,9.52
2022-11-09T21:32:12.254Z,8.80
2022-11-09T21:34:57.854Z,9.68
2022-11-09T21:37:43.372Z,9.65
2022-11-09T21:40:29.233Z,9.07
2022-11-09T21:43:15.269Z,8.77
2022-11-09T21:46:00.511Z,9.18
2022-11-09T21:48:45.954Z,9.57
2022-11-09T21:51:34.301Z,8.93
2022-11-09T21:54:20.481Z,9.93
2022-11-09T21:57:06.543Z,9.45
2022-11-09T21:59:52.355Z,9.35
2022-11-09T22:02:37.783Z,10.23
2022-11-09T22:05:23.676Z,8.85
2022-11-09T22:08:09.149Z,9.63
2022-11-09T22:11:14.758Z,8.98
2022-11-09T22:14:18.839Z,8.50
2022-11-09T22:17:08.751Z,10.02
2022-11-09T22:20:12.945Z,8.88
2022-11-09T22:22:58.765Z,9.32
2022-11-09T22:25:47.964Z,9.27
2022-11-09T22:28:34.171Z,10.13
2022-11-09T22:31:19.945Z,9.50
2022-11-09T22:34:05.489Z,10.18
2022-11-09T22:36:51.093Z,9.50
2022-11-09T22:39:36.655Z,10.10
2022-11-09T22:42:22.174Z,9.75
2022-11-09T22:45:08.223Z,9.95
2022-11-09T22:47:53.826Z,9.85
2022-11-09T22:50:39.592Z,9.23
2022-11-09T22:53:25.170Z,9.18
2022-11-09T22:56:11.431Z,9.23
2022-11-09T22:58:57.353Z,9.55
2022-11-09T23:01:43.248Z,9.52
2022-11-09T23:04:29.159Z,10.13
2022-11-09T23:07:15.091Z,9.70
2022-11-09T23:10:01.471Z,9.88
2022-11-09T23:12:49.782Z,9.77
2022-11-09T23:15:35.092Z,9.55
2022-11-09T23:18:39.315Z,9.77
2022-11-09T23:21:38.696Z,9.95
2022-11-09T23:24:42.779Z,9.63
2022-11-09T23:27:30.942Z,9.15
2022-11-09T23:30:17.925Z,10.07
2022-11-09T23:33:04.045Z,9.52
2022-11-09T23:35:50.164Z,9.70
2022-11-09T23:38:38.104Z,9.55
2022-11-09T23:41:24.676Z,9.68
2022-11-09T23:44:10.425Z,10.55
2022-11-09T23:46:59.275Z,10.75
2022-11-09T23:49:45.408Z,11.07
2022-11-09T23:52:32.076Z,10.05
2022-11-09T23:55:18.444Z,10.20
2022-11-09T23:58:05.638Z,10.48
